M/T Marvel — V7OZ3 — position and weather

sailwx.info

Track history (hours):
 
Tides and Currents Weather Stations Pressure Air Temp Water Temp Dewpoint Dewpoint Depression Visibility Wind Speed Wind Dir Waves Ship Positions

M/T Marvel

Last reported at 2016-Apr-13 22:24 UTC. Time now 2016-Apr-29 06:08 UTC.
Position S 24°15' W 045°59'.
Warning: this ship's position is 15 days out of date.

Length 183 m; draft 11.2 m.

Type: Tanker. MMSI: 538003191.

Date/timePositionNaut miles runAvg speedWind from/ knotsBaromVisibWave heightAir tempDewpointWater temp
2016-Apr-13 22:24S 24°15' W 045°59'1012.0
2016-Apr-13 21:33S 24°14' W 046°10'1110.6
2016-Apr-13 20:33S 24°10' W 046°21'1110.6
2016-Apr-13 19:33S 23°60' W 046°19'3 0.1
2016-Apr-12 10:10S 23°57' W 046°19'3 5.3
2016-Apr-12 09:33S 23°60' W 046°20'8 7.8
2016-Apr-12 08:33S 24°07' W 046°21'3 2.8
2016-Apr-12 07:32S 24°08' W 046°18'0 0.0
2016-Apr-12 06:32S 24°08' W 046°18'0 0.0
2016-Apr-12 05:29S 24°08' W 046°18'0 0.0
2016-Apr-12 04:29S 24°08' W 046°18'0 0.1
2016-Apr-12 03:32S 24°08' W 046°18'0 0.0
2016-Apr-12 02:29S 24°08' W 046°18'0 0.0
2016-Apr-12 01:32S 24°08' W 046°18'0 0.1
2016-Apr-12 00:29S 24°08' W 046°18'0 0.1
2016-Apr-11 23:29S 24°08' W 046°18'0 0.0
2016-Apr-11 22:32S 24°08' W 046°18'0 0.0
2016-Apr-11 21:32S 24°08' W 046°18'0 0.0
2016-Apr-11 20:32S 24°08' W 046°18'0 0.0
2016-Apr-11 19:26S 24°08' W 046°18'0 0.1
2016-Apr-11 18:29S 24°08' W 046°18'0 0.0
2016-Apr-11 17:23S 24°08' W 046°18'0 0.0
2016-Apr-11 16:32S 24°08' W 046°18'0 0.0
2016-Apr-11 15:20S 24°08' W 046°18'0 0.0
2016-Apr-11 14:32S 24°08' W 046°18'0 0.1
2016-Apr-11 13:29S 24°08' W 046°18'0 0.0
2016-Apr-11 12:29S 24°08' W 046°18'0 0.0
2016-Apr-11 11:29S 24°08' W 046°18'0 0.1
2016-Apr-11 10:20S 24°08' W 046°18'0 0.1
2016-Apr-11 09:32S 24°08' W 046°18'0 0.1
2016-Apr-11 08:29S 24°08' W 046°18'0 0.0
2016-Apr-11 07:32S 24°08' W 046°18'0 0.0
2016-Apr-11 06:32S 24°08' W 046°18'0 0.0
2016-Apr-11 05:29S 24°08' W 046°18'0 0.0
2016-Apr-11 04:32S 24°08' W 046°18'0 0.0
2016-Apr-11 03:29S 24°08' W 046°18'0 0.0
2016-Apr-11 02:26S 24°08' W 046°18'0 0.1
2016-Apr-11 01:27S 24°08' W 046°18'4 4.3
2016-Apr-11 00:33S 24°11' W 046°21'10 9.7
2016-Apr-10 23:33S 24°18' W 046°28'1111.4
2016-Apr-10 22:33S 24°29' W 046°32'1211.5
2016-Apr-10 21:33S 24°37' W 046°42'1212.4
2016-Apr-10 20:33S 24°45' W 046°52'  
Track history (hours):
 
Tides and Currents Weather Stations Pressure Air Temp Water Temp Dewpoint Dewpoint Depression Visibility Wind Speed Wind Dir Waves Ship Positions

M/T Marvel

Last reported at 2016-Apr-13 22:24 UTC. Time now 2016-Apr-29 06:08 UTC.
Position S 24°15' W 045°59'.
Warning: this ship's position is 15 days out of date.

Length 183 m; draft 11.2 m.

Type: Tanker. MMSI: 538003191.

Date/timePositionNaut miles runAvg speedWind from/ knotsBaromVisibWave heightAir tempDewpointWater temp
2016-Apr-13 22:24S 24°15' W 045°59'1012.0
2016-Apr-13 21:33S 24°14' W 046°10'1110.6
2016-Apr-13 20:33S 24°10' W 046°21'1110.6
2016-Apr-13 19:33S 23°60' W 046°19'3 0.1
2016-Apr-12 10:10S 23°57' W 046°19'3 5.3
2016-Apr-12 09:33S 23°60' W 046°20'8 7.8
2016-Apr-12 08:33S 24°07' W 046°21'3 2.8
2016-Apr-12 07:32S 24°08' W 046°18'0 0.0
2016-Apr-12 06:32S 24°08' W 046°18'0 0.0
2016-Apr-12 05:29S 24°08' W 046°18'0 0.0
2016-Apr-12 04:29S 24°08' W 046°18'0 0.1
2016-Apr-12 03:32S 24°08' W 046°18'0 0.0
2016-Apr-12 02:29S 24°08' W 046°18'0 0.0
2016-Apr-12 01:32S 24°08' W 046°18'0 0.1
2016-Apr-12 00:29S 24°08' W 046°18'0 0.1
2016-Apr-11 23:29S 24°08' W 046°18'0 0.0
2016-Apr-11 22:32S 24°08' W 046°18'0 0.0
2016-Apr-11 21:32S 24°08' W 046°18'0 0.0
2016-Apr-11 20:32S 24°08' W 046°18'0 0.0
2016-Apr-11 19:26S 24°08' W 046°18'0 0.1
2016-Apr-11 18:29S 24°08' W 046°18'0 0.0
2016-Apr-11 17:23S 24°08' W 046°18'0 0.0
2016-Apr-11 16:32S 24°08' W 046°18'0 0.0
2016-Apr-11 15:20S 24°08' W 046°18'0 0.0
2016-Apr-11 14:32S 24°08' W 046°18'0 0.1
2016-Apr-11 13:29S 24°08' W 046°18'0 0.0
2016-Apr-11 12:29S 24°08' W 046°18'0 0.0
2016-Apr-11 11:29S 24°08' W 046°18'0 0.1
2016-Apr-11 10:20S 24°08' W 046°18'0 0.1
2016-Apr-11 09:32S 24°08' W 046°18'0 0.1
2016-Apr-11 08:29S 24°08' W 046°18'0 0.0
2016-Apr-11 07:32S 24°08' W 046°18'0 0.0
2016-Apr-11 06:32S 24°08' W 046°18'0 0.0
2016-Apr-11 05:29S 24°08' W 046°18'0 0.0
2016-Apr-11 04:32S 24°08' W 046°18'0 0.0
2016-Apr-11 03:29S 24°08' W 046°18'0 0.0
2016-Apr-11 02:26S 24°08' W 046°18'0 0.1
2016-Apr-11 01:27S 24°08' W 046°18'4 4.3
2016-Apr-11 00:33S 24°11' W 046°21'10 9.7
2016-Apr-10 23:33S 24°18' W 046°28'1111.4
2016-Apr-10 22:33S 24°29' W 046°32'1211.5
2016-Apr-10 21:33S 24°37' W 046°42'1212.4
2016-Apr-10 20:33S 24°45' W 046°52'  

Dump ship's entire track history